Time;durP1;ratioP1;P1;durP2;ratioP2;P2;SDS_P1;SDS_P2;PMS_P1;PMS_P2;Temp;Humidity;BMP_temperature;BMP_pressure;BME280_temperature;BME280_humidity;BME280_pressure;Samples;Min_cycle;Max_cycle;Signal;HPM_P1;HPM_P2
2022/07/02 00:00:56;;;;;;;6.05;2.40;;;14.40;99.90;;;;;;5026691;28;20372;-80
2022/07/02 00:03:36;;;;;;;6.90;2.03;;;14.30;99.90;;;;;;5056392;28;20958;-79
2022/07/02 00:06:03;;;;;;;5.78;2.20;;;14.20;99.90;;;;;;5057182;28;21598;-79
2022/07/02 00:08:30;;;;;;;5.78;2.10;;;14.20;99.90;;;;;;5058637;28;20044;-78
2022/07/02 00:10:57;;;;;;;5.90;2.45;;;14.20;99.90;;;;;;5032107;28;20036;-79
2022/07/02 00:13:25;;;;;;;6.43;2.20;;;14.20;99.90;;;;;;5059967;28;20094;-77
2022/07/02 00:15:51;;;;;;;11.02;2.47;;;14.10;99.90;;;;;;5045474;28;20368;-77
2022/07/02 00:18:19;;;;;;;7.05;2.60;;;14.10;99.90;;;;;;5062778;28;20045;-78
2022/07/02 00:20:46;;;;;;;4.97;2.33;;;14.10;99.90;;;;;;5045678;28;20047;-78
2022/07/02 00:23:15;;;;;;;7.93;2.17;;;14.00;99.90;;;;;;5080530;28;20116;-81
2022/07/02 00:25:44;;;;;;;11.25;2.40;;;14.00;99.90;;;;;;5058562;28;20037;-82
2022/07/02 00:28:17;;;;;;;11.50;2.03;;;14.00;99.90;;;;;;5087498;28;20056;-79
2022/07/02 00:31:07;;;;;;;4.68;2.00;;;14.00;99.90;;;;;;5045620;28;20099;-77
2022/07/02 00:33:35;;;;;;;7.53;2.15;;;13.90;99.90;;;;;;5056911;28;20041;-80
2022/07/02 00:36:02;;;;;;;7.65;2.35;;;13.90;99.90;;;;;;5049064;28;20068;-81
2022/07/02 00:38:27;;;;;;;6.40;2.17;;;13.90;99.90;;;;;;5072601;28;20048;-77
2022/07/02 00:40:54;;;;;;;8.75;2.40;;;13.90;99.90;;;;;;5032931;28;20045;-78
2022/07/02 00:43:21;;;;;;;7.75;2.22;;;13.90;99.90;;;;;;5039459;28;20029;-78
2022/07/02 00:45:48;;;;;;;8.85;2.70;;;13.90;99.90;;;;;;5024044;28;20052;-79
2022/07/02 00:48:14;;;;;;;7.32;2.30;;;13.90;99.90;;;;;;5038126;28;20501;-79
2022/07/02 00:50:40;;;;;;;7.80;2.20;;;13.80;99.90;;;;;;5056464;28;20047;-80
2022/07/02 00:53:06;;;;;;;7.10;2.50;;;13.80;99.90;;;;;;5023455;28;20045;-82
2022/07/02 00:55:32;;;;;;;11.88;2.55;;;13.80;99.90;;;;;;5006874;28;20049;-81
2022/07/02 00:57:58;;;;;;;7.18;2.33;;;13.70;99.90;;;;;;5044977;28;20041;-77
2022/07/02 01:00:24;;;;;;;5.00;2.30;;;13.80;99.90;;;;;;5073743;28;20057;-82
2022/07/02 01:02:50;;;;;;;7.15;2.67;;;13.70;99.90;;;;;;5027887;28;20060;-79
2022/07/02 01:05:19;;;;;;;8.13;2.60;;;13.70;99.90;;;;;;5070620;28;20034;-76
2022/07/02 01:10:16;;;;;;;4.90;2.53;;;13.60;99.90;;;;;;5039229;28;20523;-77
2022/07/02 01:10:48;;;;;;;5.53;2.70;;;13.60;99.90;;;;;;5038239;28;20064;-77
2022/07/02 01:13:14;;;;;;;8.40;2.97;;;13.60;99.90;;;;;;5039605;28;20043;-81
2022/07/02 01:15:41;;;;;;;5.85;2.90;;;13.50;99.90;;;;;;5026332;28;20444;-78
2022/07/02 01:18:10;;;;;;;6.82;3.10;;;13.50;99.90;;;;;;5042468;28;20197;-81
2022/07/02 01:20:37;;;;;;;8.48;3.38;;;13.40;99.90;;;;;;5036939;28;20041;-78
2022/07/02 01:23:03;;;;;;;8.90;2.70;;;13.50;99.90;;;;;;5055016;28;20052;-79
2022/07/02 01:25:29;;;;;;;8.60;3.08;;;13.50;99.90;;;;;;5026278;28;20033;-79
2022/07/02 01:27:55;;;;;;;5.13;3.00;;;13.40;99.90;;;;;;5039956;28;20040;-79
2022/07/02 01:30:21;;;;;;;6.20;2.88;;;13.40;99.90;;;;;;5020910;28;20056;-77
2022/07/02 01:32:47;;;;;;;11.27;3.10;;;13.30;99.90;;;;;;5024257;28;20165;-79
2022/07/02 01:35:15;;;;;;;7.43;3.47;;;13.30;99.90;;;;;;5073171;28;20213;-80
2022/07/02 01:37:41;;;;;;;7.65;2.92;;;13.30;99.90;;;;;;5021861;28;20110;-81
2022/07/02 01:40:11;;;;;;;9.90;3.05;;;13.50;99.90;;;;;;5026886;28;20441;-79
2022/07/02 01:42:36;;;;;;;6.22;3.20;;;13.30;99.90;;;;;;5044502;28;20052;-82
2022/07/02 01:45:03;;;;;;;7.68;3.20;;;13.20;99.90;;;;;;5048121;28;20033;-81
2022/07/02 01:47:29;;;;;;;12.82;3.10;;;13.20;99.90;;;;;;5033457;28;20037;-80
2022/07/02 01:49:54;;;;;;;10.30;3.33;;;13.10;99.90;;;;;;5054142;28;20033;-80
2022/07/02 01:52:20;;;;;;;8.57;3.05;;;13.20;99.90;;;;;;5056811;28;20044;-78
2022/07/02 01:54:46;;;;;;;10.05;3.33;;;13.20;99.90;;;;;;5061519;28;20083;-77
2022/07/02 01:57:13;;;;;;;7.25;3.10;;;13.10;99.90;;;;;;5088727;28;20114;-78
2022/07/02 01:59:39;;;;;;;6.18;3.35;;;13.10;99.90;;;;;;5037521;28;20089;-79
2022/07/02 02:02:06;;;;;;;7.18;3.10;;;13.10;99.90;;;;;;5056575;28;20055;-78
2022/07/02 02:04:32;;;;;;;10.80;3.40;;;13.10;99.90;;;;;;5050877;28;20045;-79
2022/07/02 02:06:58;;;;;;;4.70;3.17;;;13.00;99.90;;;;;;5044725;28;20108;-80
2022/07/02 02:09:23;;;;;;;6.30;3.28;;;13.00;99.90;;;;;;5044120;28;20131;-79
2022/07/02 02:11:49;;;;;;;8.48;3.20;;;12.90;99.90;;;;;;5040720;28;20566;-79
2022/07/02 02:14:15;;;;;;;10.30;3.28;;;12.90;99.90;;;;;;5044160;28;20033;-78
2022/07/02 02:16:41;;;;;;;8.15;3.33;;;12.80;99.90;;;;;;5028127;28;20512;-79
2022/07/02 02:19:09;;;;;;;8.70;3.35;;;12.90;99.90;;;;;;5021142;28;20041;-81
2022/07/02 02:21:35;;;;;;;8.82;3.25;;;12.90;99.90;;;;;;5024499;28;20041;-79
2022/07/02 02:24:01;;;;;;;5.93;3.13;;;12.90;99.90;;;;;;5056615;28;20117;-79
2022/07/02 02:26:26;;;;;;;8.20;3.20;;;12.80;99.90;;;;;;5021585;28;20043;-77
2022/07/02 02:28:53;;;;;;;7.80;3.40;;;12.90;99.90;;;;;;5075161;28;20033;-79
2022/07/02 02:31:20;;;;;;;10.23;3.42;;;12.80;99.90;;;;;;5011612;28;20045;-78
2022/07/02 02:33:45;;;;;;;9.98;3.30;;;12.80;99.90;;;;;;5038347;28;20033;-79
2022/07/02 02:36:11;;;;;;;8.25;3.58;;;12.80;99.90;;;;;;5021954;28;20055;-79
2022/07/02 02:38:37;;;;;;;5.25;3.30;;;12.70;99.90;;;;;;5039160;28;20106;-81
2022/07/02 02:41:07;;;;;;;10.18;3.45;;;12.70;99.90;;;;;;5068603;28;20078;-79
2022/07/02 02:43:37;;;;;;;8.68;3.70;;;12.70;99.90;;;;;;5024128;28;20079;-79
2022/07/02 02:46:05;;;;;;;9.02;3.50;;;12.60;99.90;;;;;;5051752;28;20033;-78
2022/07/02 02:48:31;;;;;;;11.48;3.22;;;12.60;99.90;;;;;;5035239;28;20040;-80
2022/07/02 02:50:58;;;;;;;12.43;3.90;;;12.70;99.90;;;;;;5039944;28;20064;-82
2022/07/02 02:53:24;;;;;;;8.20;2.95;;;12.60;99.90;;;;;;5019107;28;20123;-80
2022/07/02 02:55:50;;;;;;;7.22;3.08;;;12.60;99.90;;;;;;5007108;28;20052;-79
2022/07/02 02:58:16;;;;;;;9.15;3.47;;;12.70;99.90;;;;;;5024543;28;20048;-78
2022/07/02 03:00:45;;;;;;;9.63;3.20;;;12.70;99.90;;;;;;5036559;28;20045;-79
2022/07/02 03:03:11;;;;;;;6.57;3.20;;;12.70;99.90;;;;;;5019550;28;20041;-79
2022/07/02 03:05:37;;;;;;;8.93;3.53;;;12.70;99.90;;;;;;5019772;28;20041;-79
2022/07/02 03:08:05;;;;;;;13.23;3.25;;;12.70;99.90;;;;;;5039690;28;20492;-80
2022/07/02 03:10:31;;;;;;;6.68;2.95;;;12.70;99.90;;;;;;5025706;28;20053;-81
2022/07/02 03:12:57;;;;;;;8.50;3.13;;;12.70;99.90;;;;;;5056375;28;20052;-78
2022/07/02 03:23:09;;;;;;;9.05;3.40;;;12.70;99.90;;;;;;5033723;28;20052;-76
2022/07/02 03:25:35;;;;;;;8.48;3.42;;;12.60;99.90;;;;;;5039895;28;20542;-76
2022/07/02 03:28:01;;;;;;;6.88;3.50;;;12.60;99.90;;;;;;5031940;28;20069;-79
2022/07/02 03:30:27;;;;;;;9.43;3.47;;;12.90;99.90;;;;;;5052368;28;20136;-79
2022/07/02 03:32:53;;;;;;;14.32;3.95;;;12.60;99.90;;;;;;5019094;28;20098;-80
2022/07/02 03:35:18;;;;;;;7.38;3.58;;;12.70;99.90;;;;;;5020476;28;20046;-77
2022/07/02 03:37:44;;;;;;;13.23;3.70;;;12.70;99.90;;;;;;5032518;28;20036;-79
2022/07/02 03:40:10;;;;;;;10.23;3.80;;;12.70;99.90;;;;;;5016330;28;20045;-77
2022/07/02 03:42:36;;;;;;;8.35;3.78;;;12.60;99.90;;;;;;5003359;28;20884;-80
2022/07/02 03:45:04;;;;;;;8.45;3.80;;;12.70;99.90;;;;;;5052285;28;20041;-78
2022/07/02 03:47:29;;;;;;;9.85;3.70;;;12.70;99.90;;;;;;5023006;28;20040;-82
2022/07/02 03:49:57;;;;;;;9.50;3.47;;;12.80;99.90;;;;;;5032988;28;20061;-77
2022/07/02 03:52:25;;;;;;;12.45;3.83;;;12.70;99.90;;;;;;5020676;28;20041;-78
2022/07/02 03:54:53;;;;;;;9.63;3.53;;;13.00;99.90;;;;;;5030918;28;20076;-79
2022/07/02 03:57:19;;;;;;;10.65;4.20;;;12.70;99.90;;;;;;5020113;28;20124;-80
2022/07/02 03:59:45;;;;;;;11.40;4.05;;;12.80;99.90;;;;;;5023529;28;20043;-78
2022/07/02 04:02:10;;;;;;;11.38;3.70;;;12.80;99.90;;;;;;5036697;28;20327;-79
2022/07/02 04:04:36;;;;;;;11.63;4.00;;;12.80;99.90;;;;;;5053915;28;20108;-78
2022/07/02 04:07:01;;;;;;;13.10;3.90;;;12.80;99.90;;;;;;5052569;28;20046;-78
2022/07/02 04:09:29;;;;;;;16.23;4.22;;;12.90;99.90;;;;;;5039336;28;20049;-79
2022/07/02 04:11:55;;;;;;;11.85;4.03;;;12.90;99.90;;;;;;5056877;28;20168;-80
2022/07/02 04:14:21;;;;;;;8.73;4.15;;;13.00;99.90;;;;;;5020327;28;20150;-80
2022/07/02 04:16:46;;;;;;;10.75;4.40;;;13.10;99.90;;;;;;5022793;28;20065;-80
2022/07/02 04:19:18;;;;;;;9.05;3.90;;;13.10;99.90;;;;;;5006893;28;20045;-79
2022/07/02 04:21:44;;;;;;;10.55;4.20;;;13.20;99.90;;;;;;5046776;28;20508;-80
2022/07/02 04:24:09;;;;;;;11.18;4.30;;;13.20;99.90;;;;;;5070196;28;20056;-78
2022/07/02 04:26:35;;;;;;;9.25;4.13;;;13.30;99.90;;;;;;5024170;28;20437;-81
2022/07/02 04:29:01;;;;;;;9.82;4.20;;;13.40;99.90;;;;;;5025953;28;20121;-80
2022/07/02 04:31:27;;;;;;;9.98;4.25;;;13.70;99.90;;;;;;5039382;28;20045;-81
2022/07/02 04:33:52;;;;;;;10.55;4.30;;;13.80;99.90;;;;;;5040202;28;20033;-83
2022/07/02 04:36:18;;;;;;;10.20;4.15;;;13.90;99.90;;;;;;5030351;28;20091;-79
2022/07/02 04:38:45;;;;;;;10.95;4.25;;;14.60;99.90;;;;;;5033062;28;20116;-79
2022/07/02 04:41:11;;;;;;;11.70;4.00;;;15.60;99.90;;;;;;5072341;28;20043;-79
2022/07/02 04:43:36;;;;;;;8.70;3.90;;;16.50;99.90;;;;;;5094233;28;20033;-79
2022/07/02 04:46:03;;;;;;;9.32;3.35;;;17.30;99.90;;;;;;5086693;28;20040;-80
2022/07/02 04:48:29;;;;;;;9.15;3.85;;;17.80;99.90;;;;;;5066682;28;20118;-77
2022/07/02 04:50:55;;;;;;;10.75;3.67;;;18.30;99.90;;;;;;5054465;28;20033;-77
2022/07/02 04:53:21;;;;;;;10.00;3.60;;;18.30;99.90;;;;;;5051777;28;20045;-80
2022/07/02 04:55:46;;;;;;;6.75;3.58;;;19.00;99.90;;;;;;5026547;28;20037;-79
2022/07/02 04:58:13;;;;;;;9.15;3.70;;;19.30;99.90;;;;;;5027128;28;20045;-78
2022/07/02 05:00:39;;;;;;;11.77;4.30;;;19.20;99.90;;;;;;5022334;28;20449;-80
2022/07/02 05:03:05;;;;;;;9.50;4.45;;;19.10;99.90;;;;;;5025350;28;20041;-81
2022/07/02 05:05:30;;;;;;;10.07;4.45;;;18.40;99.90;;;;;;5021284;28;20047;-80
2022/07/02 05:07:56;;;;;;;9.77;4.45;;;17.60;99.90;;;;;;5038329;28;20037;-81
2022/07/02 05:10:22;;;;;;;8.85;4.68;;;17.00;99.90;;;;;;5073115;28;20041;-81
2022/07/02 05:12:47;;;;;;;11.50;4.85;;;16.60;99.90;;;;;;5072327;28;20083;-79
2022/07/02 05:15:14;;;;;;;10.88;5.30;;;16.30;99.90;;;;;;5035728;28;20041;-80
2022/07/02 05:17:40;;;;;;;8.57;5.38;;;16.00;99.90;;;;;;5016051;28;20045;-80
2022/07/02 05:20:06;;;;;;;8.27;5.47;;;15.90;99.90;;;;;;5044567;28;20052;-79
2022/07/02 05:22:31;;;;;;;8.02;5.20;;;15.80;99.90;;;;;;5044841;28;20147;-82
2022/07/02 05:24:57;;;;;;;11.10;5.45;;;15.90;99.90;;;;;;5029530;28;20120;-82
2022/07/02 05:27:23;;;;;;;10.25;5.75;;;15.80;99.90;;;;;;5045585;28;20485;-82
2022/07/02 05:29:48;;;;;;;10.40;5.90;;;15.80;99.90;;;;;;5059727;28;20061;-81
2022/07/02 05:32:14;;;;;;;12.15;5.97;;;15.70;99.90;;;;;;5077133;28;20079;-80
2022/07/02 05:34:40;;;;;;;11.95;5.43;;;15.70;99.90;;;;;;5042130;28;20119;-80
2022/07/02 05:37:05;;;;;;;11.13;5.40;;;15.70;99.90;;;;;;5030310;28;20060;-80
2022/07/02 05:39:31;;;;;;;9.63;5.40;;;15.70;99.90;;;;;;5046163;28;20033;-78
2022/07/02 05:41:56;;;;;;;9.98;5.40;;;15.70;99.90;;;;;;5028982;28;20075;-81
2022/07/02 05:44:22;;;;;;;11.00;5.65;;;15.70;99.90;;;;;;5026239;28;20044;-79
2022/07/02 05:46:48;;;;;;;11.68;4.93;;;15.70;99.90;;;;;;5028331;28;20057;-79
2022/07/02 05:49:16;;;;;;;11.63;5.28;;;15.70;99.90;;;;;;5026144;28;20067;-79
2022/07/02 05:51:43;;;;;;;14.48;4.90;;;15.80;99.90;;;;;;5075342;28;20162;-80
2022/07/02 05:54:08;;;;;;;7.80;4.55;;;15.80;99.90;;;;;;5042157;28;20059;-78
2022/07/02 05:56:34;;;;;;;15.20;4.80;;;15.80;99.90;;;;;;5057241;28;20041;-79
2022/07/02 05:59:00;;;;;;;8.73;4.40;;;15.90;99.90;;;;;;5059681;28;20112;-83
2022/07/02 06:01:27;;;;;;;8.23;3.60;;;16.00;99.90;;;;;;5047193;28;20037;-80
2022/07/02 06:03:53;;;;;;;16.63;4.10;;;16.10;99.90;;;;;;5030594;28;20053;-76
2022/07/02 06:09:03;;;;;;;7.93;3.97;;;16.40;99.90;;;;;;5083467;28;20055;-74
2022/07/02 06:11:29;;;;;;;7.13;3.80;;;16.50;99.90;;;;;;5050338;28;20052;-74
2022/07/02 06:13:55;;;;;;;11.45;3.60;;;16.50;99.90;;;;;;5048925;28;20041;-75
2022/07/02 06:16:21;;;;;;;7.70;3.63;;;16.60;99.90;;;;;;5028543;28;20044;-78
2022/07/02 06:18:46;;;;;;;11.73;4.13;;;16.60;99.90;;;;;;5047089;28;20109;-80
2022/07/02 06:21:15;;;;;;;9.82;3.40;;;16.70;99.90;;;;;;5041120;28;20045;-81
2022/07/02 06:23:44;;;;;;;9.70;3.72;;;16.70;99.90;;;;;;5041690;28;20431;-82
2022/07/02 06:26:10;;;;;;;10.05;3.70;;;16.70;99.90;;;;;;5049617;28;20099;-79
2022/07/02 06:28:35;;;;;;;9.55;3.80;;;16.70;99.90;;;;;;5030812;28;20551;-78
2022/07/02 06:31:01;;;;;;;9.82;3.30;;;16.70;99.90;;;;;;5047913;28;20113;-83
2022/07/02 06:33:26;;;;;;;11.75;3.55;;;16.70;99.90;;;;;;5031614;28;20095;-78
2022/07/02 06:35:52;;;;;;;9.90;3.28;;;16.80;99.90;;;;;;5026798;28;20043;-79
2022/07/02 06:38:18;;;;;;;10.02;3.20;;;16.80;99.90;;;;;;5038847;28;20052;-81
2022/07/02 06:40:44;;;;;;;8.27;3.28;;;16.90;99.90;;;;;;5048242;28;20064;-80
2022/07/02 06:43:09;;;;;;;7.00;3.78;;;16.90;99.90;;;;;;5029512;28;20321;-81
2022/07/02 06:45:36;;;;;;;8.40;2.92;;;16.90;99.90;;;;;;5072416;28;20820;-84
2022/07/02 06:48:02;;;;;;;8.93;2.90;;;17.00;99.90;;;;;;5046536;28;20043;-85
2022/07/02 06:50:28;;;;;;;12.27;3.00;;;17.10;99.90;;;;;;5026667;28;20037;-85
2022/07/02 06:52:54;;;;;;;8.55;2.90;;;17.20;99.90;;;;;;5056237;28;20044;-82
2022/07/02 06:55:20;;;;;;;7.00;2.70;;;17.30;99.90;;;;;;5043412;28;20060;-82
2022/07/02 06:57:48;;;;;;;7.05;2.40;;;17.40;99.90;;;;;;5047948;28;20038;-80
2022/07/02 07:00:15;;;;;;;9.27;2.63;;;17.50;99.90;;;;;;5027533;28;20092;-82
2022/07/02 07:02:41;;;;;;;8.20;3.10;;;17.60;99.90;;;;;;5034225;28;20044;-83
2022/07/02 07:05:08;;;;;;;7.10;2.60;;;17.70;99.90;;;;;;5027049;28;20041;-82
2022/07/02 07:07:34;;;;;;;8.50;2.83;;;17.70;99.90;;;;;;5041871;28;20037;-84
2022/07/02 07:10:00;;;;;;;6.35;2.50;;;17.80;99.90;;;;;;5039613;28;20447;-81
2022/07/02 07:12:26;;;;;;;6.32;2.20;;;17.80;99.90;;;;;;5040285;28;20110;-84
2022/07/02 07:14:52;;;;;;;9.52;2.47;;;17.80;99.90;;;;;;5054625;28;20377;-80
2022/07/02 07:17:19;;;;;;;7.38;2.60;;;17.90;99.90;;;;;;5056880;28;20394;-83
2022/07/02 07:19:46;;;;;;;12.98;2.47;;;18.00;99.90;;;;;;5019879;28;20045;-81
2022/07/02 07:22:15;;;;;;;6.95;2.38;;;18.00;99.90;;;;;;5022814;28;20061;-80
2022/07/02 07:24:41;;;;;;;7.15;2.30;;;18.10;99.90;;;;;;5024378;28;20071;-79
2022/07/02 07:27:06;;;;;;;7.05;1.92;;;18.10;99.90;;;;;;5039454;28;20064;-78
2022/07/02 07:29:32;;;;;;;6.10;2.47;;;18.20;99.90;;;;;;5044947;28;20041;-76
2022/07/02 07:35:40;;;;;;;5.38;2.03;;;18.20;99.90;;;;;;5055124;28;20136;-80
2022/07/02 07:38:06;;;;;;;7.50;2.10;;;18.20;99.90;;;;;;5056842;28;20096;-79
2022/07/02 07:40:32;;;;;;;7.10;2.10;;;18.20;99.90;;;;;;5031264;28;20313;-82
2022/07/02 07:42:58;;;;;;;5.88;1.60;;;18.20;99.90;;;;;;5040938;28;20496;-80
2022/07/02 07:45:23;;;;;;;7.10;1.80;;;18.30;99.90;;;;;;5013369;28;20345;-81
2022/07/02 07:47:49;;;;;;;5.53;2.13;;;18.40;99.90;;;;;;5039784;28;20033;-81
2022/07/02 07:50:15;;;;;;;8.00;2.50;;;18.40;99.90;;;;;;5036507;28;20048;-82
2022/07/02 07:52:41;;;;;;;4.72;1.60;;;18.50;99.90;;;;;;5032664;28;20055;-83
2022/07/02 07:55:07;;;;;;;6.97;1.90;;;18.70;99.90;;;;;;5018783;28;20052;-79
2022/07/02 07:57:33;;;;;;;5.95;1.80;;;18.70;99.90;;;;;;5002625;28;20511;-80
2022/07/02 07:59:58;;;;;;;3.95;1.98;;;18.80;99.90;;;;;;5020221;28;20053;-82
2022/07/02 08:02:24;;;;;;;4.78;1.33;;;18.90;99.90;;;;;;5038844;28;20041;-80
2022/07/02 08:04:50;;;;;;;3.42;1.60;;;19.00;99.90;;;;;;5037560;28;20119;-81
2022/07/02 08:07:15;;;;;;;5.15;1.55;;;18.90;99.90;;;;;;5019069;28;20072;-80
2022/07/02 08:09:41;;;;;;;8.80;1.80;;;18.90;99.90;;;;;;5036281;28;20037;-82
2022/07/02 08:12:07;;;;;;;7.60;1.65;;;19.00;99.90;;;;;;5017779;28;20060;-80
2022/07/02 08:14:33;;;;;;;5.47;1.45;;;19.20;99.90;;;;;;5076211;28;20056;-80
2022/07/02 08:16:58;;;;;;;4.60;1.60;;;19.20;99.90;;;;;;5044838;28;20953;-79
2022/07/02 08:19:24;;;;;;;3.78;1.25;;;19.20;99.90;;;;;;5045588;28;20076;-83
2022/07/02 08:21:50;;;;;;;3.83;1.33;;;19.30;99.90;;;;;;5022886;28;20049;-80
2022/07/02 08:24:15;;;;;;;3.50;1.20;;;19.20;99.90;;;;;;5025918;28;20041;-82
2022/07/02 08:26:41;;;;;;;2.90;1.27;;;19.10;99.90;;;;;;5059646;28;20055;-79
2022/07/02 08:29:07;;;;;;;3.22;1.40;;;19.30;99.90;;;;;;5054894;28;20055;-81
2022/07/02 08:31:34;;;;;;;3.70;1.10;;;19.30;99.90;;;;;;5032559;28;20698;-80
2022/07/02 08:34:00;;;;;;;6.13;1.60;;;19.50;99.90;;;;;;5049702;28;20116;-79
2022/07/02 08:36:26;;;;;;;8.02;1.58;;;19.60;99.90;;;;;;5053418;28;20123;-77
2022/07/02 08:38:52;;;;;;;8.48;1.30;;;19.70;99.90;;;;;;5026895;28;20068;-77
2022/07/02 08:41:18;;;;;;;5.30;1.52;;;19.70;99.90;;;;;;5017990;28;20071;-74
2022/07/02 08:43:44;;;;;;;4.43;1.40;;;19.70;99.90;;;;;;5038642;28;20460;-76
2022/07/02 08:46:12;;;;;;;3.40;1.13;;;19.80;99.90;;;;;;5043656;28;20062;-79
2022/07/02 08:48:39;;;;;;;3.15;1.17;;;19.80;99.90;;;;;;5038475;28;20157;-75
2022/07/02 08:51:07;;;;;;;3.80;1.10;;;19.90;99.90;;;;;;5055049;28;20043;-78
2022/07/02 08:53:33;;;;;;;6.47;1.23;;;19.90;99.90;;;;;;5050203;28;20353;-78
2022/07/02 08:56:00;;;;;;;2.88;1.13;;;19.90;99.90;;;;;;5042988;28;20049;-77
2022/07/02 08:58:26;;;;;;;3.30;1.13;;;20.00;99.90;;;;;;5037031;28;20495;-81
2022/07/02 09:04:19;;;;;;;3.15;1.02;;;20.10;99.90;;;;;;5058721;28;20040;-77
2022/07/02 09:06:49;;;;;;;8.95;1.40;;;20.20;99.90;;;;;;5075311;28;20083;-76
2022/07/02 09:09:16;;;;;;;7.65;1.40;;;20.40;99.90;;;;;;5059072;28;20526;-77
2022/07/02 09:11:43;;;;;;;2.08;0.80;;;20.40;99.90;;;;;;5048308;28;20450;-78
2022/07/02 09:14:09;;;;;;;4.50;0.90;;;20.50;99.90;;;;;;5052240;28;20036;-77
2022/07/02 09:16:36;;;;;;;3.70;0.90;;;20.70;99.90;;;;;;5047424;28;20139;-77
2022/07/02 09:19:02;;;;;;;7.07;0.80;;;20.80;99.90;;;;;;5044414;28;20134;-76
2022/07/02 09:21:28;;;;;;;3.78;1.10;;;20.70;99.90;;;;;;5029469;28;20037;-77
2022/07/02 09:23:53;;;;;;;2.22;0.90;;;20.70;99.90;;;;;;5050551;28;20037;-76
2022/07/02 09:26:23;;;;;;;4.22;0.85;;;20.80;99.90;;;;;;5047540;28;20045;-79
2022/07/02 09:28:59;;;;;;;2.35;0.90;;;21.10;99.90;;;;;;5031391;28;20053;-76
2022/07/02 09:31:26;;;;;;;2.05;0.63;;;21.10;99.90;;;;;;5023116;28;20049;-77
2022/07/02 09:33:52;;;;;;;2.03;0.80;;;21.00;99.90;;;;;;5030481;28;20041;-76
2022/07/02 09:36:19;;;;;;;2.95;0.70;;;21.10;99.90;;;;;;5032522;28;20041;-78
2022/07/02 09:38:50;;;;;;;4.32;0.88;;;21.10;99.90;;;;;;5033065;28;20036;-77
2022/07/02 09:41:20;;;;;;;2.03;0.80;;;21.30;99.90;;;;;;5046713;28;20041;-78
2022/07/02 09:44:00;;;;;;;9.48;1.20;;;21.50;99.90;;;;;;5042255;28;20045;-77
2022/07/02 09:46:27;;;;;;;3.65;0.90;;;21.60;99.90;;;;;;5040107;28;20082;-76
2022/07/02 09:48:52;;;;;;;2.92;0.90;;;21.70;99.90;;;;;;5042306;28;20121;-79
2022/07/02 09:51:19;;;;;;;4.15;0.90;;;21.80;99.90;;;;;;5072548;28;20416;-79
2022/07/02 09:53:53;;;;;;;3.67;0.95;;;21.80;99.90;;;;;;5046470;28;20583;-75
2022/07/02 09:56:20;;;;;;;5.65;0.85;;;21.80;99.90;;;;;;5038583;28;20072;-76
2022/07/02 09:58:46;;;;;;;3.65;0.80;;;21.80;99.90;;;;;;5037531;28;20040;-74
2022/07/02 10:01:22;;;;;;;4.55;0.90;;;21.50;99.90;;;;;;5029553;28;20029;-75
2022/07/02 10:03:52;;;;;;;4.72;1.25;;;21.40;99.90;;;;;;5046489;28;20075;-75
2022/07/02 10:06:19;;;;;;;1.30;0.60;;;21.50;99.90;;;;;;5074534;28;20064;-76
2022/07/02 10:08:45;;;;;;;2.08;0.88;;;21.70;99.90;;;;;;5057074;28;20047;-76
2022/07/02 10:11:13;;;;;;;4.78;0.85;;;21.70;99.90;;;;;;5072699;28;20040;-78
2022/07/02 10:13:39;;;;;;;4.00;0.75;;;22.20;99.90;;;;;;5082663;28;20060;-77
2022/07/02 10:19:31;;;;;;;4.38;0.80;;;22.30;99.60;;;;;;5048126;28;20047;-74
2022/07/02 10:21:59;;;;;;;1.73;0.65;;;22.50;99.90;;;;;;5078222;28;20045;-78
2022/07/02 10:24:25;;;;;;;4.38;0.90;;;22.50;99.90;;;;;;5051389;28;20480;-74
2022/07/02 10:26:54;;;;;;;2.50;0.70;;;22.60;99.40;;;;;;5062501;28;20056;-74
2022/07/02 10:29:21;;;;;;;4.15;0.85;;;22.70;99.90;;;;;;5045948;28;20048;-75
2022/07/02 10:32:04;;;;;;;5.25;0.80;;;22.70;99.90;;;;;;5083799;28;20131;-75
2022/07/02 10:34:50;;;;;;;1.25;0.50;;;22.90;99.90;;;;;;5039567;28;20064;-76
2022/07/02 10:37:16;;;;;;;2.10;0.70;;;22.90;98.90;;;;;;5074406;28;20032;-77
2022/07/02 10:39:43;;;;;;;1.73;0.50;;;22.90;99.30;;;;;;5032843;28;20518;-77
2022/07/02 10:42:09;;;;;;;2.60;0.80;;;22.90;99.30;;;;;;5029082;28;20368;-79
2022/07/02 10:44:38;;;;;;;4.55;0.88;;;22.90;99.40;;;;;;5034983;28;20045;-77
2022/07/02 10:47:05;;;;;;;3.67;0.80;;;23.10;98.90;;;;;;5030173;28;20047;-79
2022/07/02 10:49:31;;;;;;;3.03;0.75;;;23.00;98.80;;;;;;5062654;28;20056;-77
2022/07/02 10:51:57;;;;;;;1.42;0.70;;;23.30;99.10;;;;;;5060615;28;20102;-80
2022/07/02 10:54:32;;;;;;;6.78;0.77;;;23.30;99.00;;;;;;5045655;28;20140;-77
2022/07/02 10:56:59;;;;;;;4.13;0.90;;;23.50;98.80;;;;;;5045122;28;20041;-75
2022/07/02 10:59:35;;;;;;;4.13;0.90;;;23.30;98.70;;;;;;5056950;28;20135;-77
2022/07/02 11:02:04;;;;;;;1.67;0.60;;;23.20;98.30;;;;;;5072591;28;20045;-77
2022/07/02 11:04:29;;;;;;;4.55;0.70;;;23.20;97.90;;;;;;5038875;28;20041;-79
2022/07/02 11:07:10;;;;;;;4.55;0.70;;;23.20;98.40;;;;;;5046466;28;20056;-77
2022/07/02 11:09:58;;;;;;;2.97;0.70;;;23.60;98.10;;;;;;5028094;28;20709;-79
2022/07/02 11:12:43;;;;;;;2.42;0.75;;;23.80;97.60;;;;;;5025375;28;20560;-76
2022/07/02 11:15:16;;;;;;;;;;;23.90;98.20;;;;;;5055766;28;20782;-76
2022/07/02 11:17:47;;;;;;;2.30;0.75;;;24.10;98.00;;;;;;5041755;28;20327;-76
2022/07/02 11:20:23;;;;;;;2.30;0.68;;;24.10;98.00;;;;;;5041666;28;20068;-76
2022/07/02 11:22:50;;;;;;;3.65;0.90;;;24.20;97.70;;;;;;5077915;28;20081;-75
2022/07/02 11:25:16;;;;;;;2.92;0.77;;;23.80;97.80;;;;;;5040898;28;20073;-75
2022/07/02 11:27:42;;;;;;;3.30;0.68;;;23.80;97.30;;;;;;5023435;28;20125;-75
2022/07/02 11:30:10;;;;;;;2.95;0.52;;;23.70;98.00;;;;;;5074265;28;20067;-74
2022/07/02 11:32:37;;;;;;;1.42;0.68;;;23.60;98.00;;;;;;5041638;28;20111;-75
2022/07/02 11:35:03;;;;;;;2.35;0.60;;;23.40;98.00;;;;;;5031224;28;20041;-75
2022/07/02 11:37:28;;;;;;;1.25;0.60;;;23.40;97.90;;;;;;5023475;28;20149;-75
2022/07/02 11:39:54;;;;;;;1.70;0.60;;;23.40;98.00;;;;;;5066473;28;20590;-76
2022/07/02 11:42:35;;;;;;;4.32;0.60;;;23.30;98.10;;;;;;5018882;28;20043;-74
2022/07/02 11:45:01;;;;;;;1.38;0.55;;;23.50;97.70;;;;;;5046578;28;20041;-74
2022/07/02 11:47:47;;;;;;;1.67;0.70;;;23.50;97.80;;;;;;5078127;28;20040;-75
2022/07/02 11:50:13;;;;;;;2.20;0.73;;;23.20;97.40;;;;;;5063599;28;20051;-74
2022/07/02 11:52:47;;;;;;;2.63;0.50;;;23.20;97.70;;;;;;5028795;28;20052;-75
2022/07/02 11:55:16;;;;;;;1.98;0.82;;;23.80;97.90;;;;;;5069993;28;20400;-74
2022/07/02 11:57:43;;;;;;;3.15;0.65;;;23.90;97.10;;;;;;5037763;28;20136;-74
2022/07/02 12:00:10;;;;;;;4.05;1.00;;;24.10;97.70;;;;;;5038697;28;20056;-75
2022/07/02 12:02:40;;;;;;;3.53;0.68;;;24.30;97.20;;;;;;5044796;28;20059;-73
2022/07/02 12:05:19;;;;;;;2.83;0.73;;;24.10;96.60;;;;;;5019771;28;20114;-76
2022/07/02 12:07:44;;;;;;;1.65;0.60;;;24.10;96.20;;;;;;5042398;28;20091;-72
2022/07/02 12:10:12;;;;;;;6.00;0.68;;;23.90;97.20;;;;;;5035720;28;20045;-75
2022/07/02 12:12:38;;;;;;;4.75;1.40;;;23.90;97.10;;;;;;5036533;28;20102;-75
2022/07/02 12:15:05;;;;;;;9.63;1.67;;;23.80;97.70;;;;;;5039929;28;20049;-74
2022/07/02 12:17:31;;;;;;;2.28;0.70;;;23.80;98.00;;;;;;5037881;28;20115;-74
2022/07/02 12:19:57;;;;;;;1.92;0.70;;;24.10;97.20;;;;;;5064026;28;20101;-74
2022/07/02 12:22:26;;;;;;;3.70;0.70;;;24.50;97.70;;;;;;5031226;28;20198;-74
2022/07/02 12:24:51;;;;;;;7.93;1.58;;;24.50;96.90;;;;;;5035265;28;20144;-75
2022/07/02 12:27:17;;;;;;;4.32;0.80;;;24.60;97.80;;;;;;5066972;28;20116;-74
2022/07/02 12:29:58;;;;;;;2.35;0.70;;;24.60;97.10;;;;;;5048822;28;20080;-74
2022/07/02 12:32:38;;;;;;;3.25;0.60;;;25.00;97.50;;;;;;5023628;28;20379;-75
2022/07/02 12:35:10;;;;;;;2.20;0.77;;;25.20;97.30;;;;;;5036160;28;20040;-77
2022/07/02 12:37:44;;;;;;;2.65;0.70;;;25.50;96.40;;;;;;5044498;28;20088;-74
2022/07/02 12:40:12;;;;;;;1.38;0.68;;;25.50;95.60;;;;;;5057551;28;20046;-74
2022/07/02 12:42:59;;;;;;;4.22;0.82;;;25.40;96.00;;;;;;5076224;28;20049;-75
2022/07/02 12:45:26;;;;;;;1.67;0.80;;;25.60;95.90;;;;;;5053003;28;20041;-74
2022/07/02 12:48:00;;;;;;;2.38;1.00;;;25.70;96.40;;;;;;5022878;28;20375;-74
2022/07/02 12:50:53;;;;;;;1.50;0.85;;;25.80;95.80;;;;;;5028914;28;20045;-75
2022/07/02 12:53:20;;;;;;;4.15;0.70;;;25.80;95.50;;;;;;5036641;28;20407;-73
2022/07/02 12:56:03;;;;;;;2.08;0.70;;;25.80;95.40;;;;;;5021879;28;20044;-74
2022/07/02 12:58:31;;;;;;;1.65;0.70;;;25.90;96.00;;;;;;5033994;28;20098;-74
2022/07/02 13:00:58;;;;;;;2.22;0.63;;;25.70;96.00;;;;;;5042529;28;20147;-74
2022/07/02 13:03:25;;;;;;;2.50;0.50;;;26.20;96.00;;;;;;5075339;28;20036;-74
2022/07/02 13:05:53;;;;;;;1.17;0.50;;;26.40;95.30;;;;;;5030253;28;20056;-74
2022/07/02 13:08:20;;;;;;;1.52;0.70;;;26.40;95.60;;;;;;5048792;28;20044;-74